createdAt,value
2016-07-17T00:00:29.366Z,19.61
2016-07-17T00:01:29.280Z,19.63
2016-07-17T00:02:29.317Z,19.57
2016-07-17T00:03:29.296Z,19.76
2016-07-17T00:04:29.276Z,19.69
2016-07-17T00:05:29.281Z,19.69
2016-07-17T00:06:29.263Z,19.76
2016-07-17T00:07:29.255Z,19.68
2016-07-17T00:08:29.322Z,19.78
2016-07-17T00:09:29.242Z,19.72
2016-07-17T00:10:29.493Z,19.76
2016-07-17T00:11:29.269Z,19.73
2016-07-17T00:12:29.282Z,19.76
2016-07-17T00:13:29.279Z,19.65
2016-07-17T00:14:29.552Z,19.75
2016-07-17T00:15:29.593Z,19.73
2016-07-17T00:16:29.438Z,19.75
2016-07-17T00:17:29.685Z,19.76
2016-07-17T00:18:29.407Z,19.73
2016-07-17T00:19:29.264Z,19.72
2016-07-17T00:20:29.277Z,19.66
2016-07-17T00:21:29.368Z,19.83
2016-07-17T00:22:30.625Z,19.75
2016-07-17T00:23:29.304Z,19.8
2016-07-17T00:24:29.305Z,19.76
2016-07-17T00:25:29.416Z,19.75
2016-07-17T00:26:29.647Z,19.72
2016-07-17T00:27:29.331Z,19.79
2016-07-17T00:28:29.366Z,19.76
2016-07-17T00:29:29.280Z,19.73
2016-07-17T00:30:29.287Z,19.7
2016-07-17T00:31:29.806Z,19.61
2016-07-17T00:32:29.578Z,19.68
2016-07-17T00:33:29.617Z,19.69
2016-07-17T00:34:29.868Z,19.75
2016-07-17T00:35:29.391Z,19.75
2016-07-17T00:36:29.400Z,19.68
2016-07-17T00:37:29.281Z,19.68
2016-07-17T00:38:29.610Z,19.78
2016-07-17T00:39:29.364Z,19.7
2016-07-17T00:40:29.291Z,19.72
2016-07-17T00:41:29.760Z,19.72
2016-07-17T00:42:29.556Z,19.66
2016-07-17T00:43:29.792Z,19.69
2016-07-17T00:44:29.486Z,19.72
2016-07-17T00:45:29.866Z,19.73
2016-07-17T00:46:29.362Z,19.69
2016-07-17T00:47:29.517Z,19.69
2016-07-17T00:48:29.603Z,19.75
2016-07-17T00:49:30.004Z,19.78
2016-07-17T00:50:29.306Z,19.73
2016-07-17T00:51:29.600Z,19.72
2016-07-17T00:52:29.412Z,19.72
2016-07-17T00:53:29.297Z,19.68
2016-07-17T00:54:29.410Z,19.73
2016-07-17T00:55:29.416Z,19.7
2016-07-17T00:56:29.367Z,19.69
2016-07-17T00:57:29.697Z,19.65
2016-07-17T00:58:29.668Z,19.7
2016-07-17T00:59:29.914Z,19.54
2016-07-17T01:00:29.713Z,19.68
2016-07-17T01:01:29.321Z,19.72
2016-07-17T01:02:29.730Z,19.61
2016-07-17T01:03:29.585Z,19.66
2016-07-17T01:04:29.322Z,19.61
2016-07-17T01:05:29.657Z,19.61
2016-07-17T01:06:29.319Z,19.55
2016-07-17T01:07:29.467Z,19.61
2016-07-17T01:08:29.641Z,19.68
2016-07-17T01:09:29.668Z,19.65
2016-07-17T01:10:29.461Z,19.73
2016-07-17T01:11:29.383Z,19.61
2016-07-17T01:12:29.332Z,19.63
2016-07-17T01:13:29.819Z,19.68
2016-07-17T01:14:29.683Z,19.65
2016-07-17T01:15:29.513Z,19.55
2016-07-17T01:16:29.349Z,19.65
2016-07-17T01:17:29.366Z,19.58
2016-07-17T01:18:29.317Z,19.47
2016-07-17T01:19:29.322Z,19.54
2016-07-17T01:20:29.308Z,19.6
2016-07-17T01:21:29.337Z,19.57
2016-07-17T01:22:29.370Z,19.6
2016-07-17T01:23:29.324Z,19.57
2016-07-17T01:24:29.333Z,19.55
2016-07-17T01:25:29.369Z,19.63
2016-07-17T01:26:29.369Z,19.72
2016-07-17T01:27:29.353Z,19.6
2016-07-17T01:28:29.340Z,19.58
2016-07-17T01:29:29.339Z,19.57
2016-07-17T01:30:29.346Z,19.6
2016-07-17T01:31:29.367Z,19.57
2016-07-17T01:32:29.372Z,19.69
2016-07-17T01:33:30.123Z,19.58
2016-07-17T01:34:29.379Z,19.55
2016-07-17T01:35:29.355Z,19.51
2016-07-17T01:36:29.361Z,19.66
2016-07-17T01:37:29.366Z,19.58
2016-07-17T01:38:29.367Z,19.6
2016-07-17T01:39:29.371Z,19.53
2016-07-17T01:40:29.347Z,19.53
2016-07-17T01:41:29.354Z,19.57
2016-07-17T01:42:29.331Z,19.57
2016-07-17T01:43:29.370Z,19.61
2016-07-17T01:44:29.374Z,19.58
2016-07-17T01:45:29.347Z,19.53
2016-07-17T01:46:29.366Z,19.57
2016-07-17T01:47:29.341Z,19.63
2016-07-17T01:48:29.360Z,19.57
2016-07-17T01:49:29.368Z,19.57
2016-07-17T01:50:29.391Z,19.57
2016-07-17T01:51:29.357Z,19.6
2016-07-17T01:52:29.344Z,19.63
2016-07-17T01:53:29.365Z,19.63
2016-07-17T01:54:29.372Z,19.61
2016-07-17T01:55:29.363Z,19.61
2016-07-17T01:56:29.336Z,19.6
2016-07-17T01:57:29.350Z,19.58
2016-07-17T01:58:29.355Z,19.63
2016-07-17T01:59:29.348Z,19.57
2016-07-17T02:00:29.354Z,19.6
2016-07-17T02:01:29.357Z,19.48
2016-07-17T02:02:29.347Z,19.55
2016-07-17T02:03:29.385Z,19.53
2016-07-17T02:04:29.372Z,19.53
2016-07-17T02:05:29.346Z,19.53
2016-07-17T02:06:29.358Z,19.66
2016-07-17T02:07:29.356Z,19.58
2016-07-17T02:08:29.345Z,19.55
2016-07-17T02:09:29.364Z,19.61
2016-07-17T02:10:29.382Z,19.48
2016-07-17T02:11:29.377Z,19.54
2016-07-17T02:12:29.403Z,19.53
2016-07-17T02:13:29.396Z,19.53
2016-07-17T02:14:29.378Z,19.57
2016-07-17T02:15:29.402Z,19.55
2016-07-17T02:16:29.392Z,19.65
2016-07-17T02:17:29.410Z,19.57
2016-07-17T02:18:29.393Z,19.6
2016-07-17T02:19:29.378Z,19.48
2016-07-17T02:20:29.373Z,19.5
2016-07-17T02:21:29.401Z,19.61
2016-07-17T02:22:29.394Z,19.46
2016-07-17T02:23:29.373Z,19.5
2016-07-17T02:24:29.410Z,19.51
2016-07-17T02:25:29.382Z,19.48
2016-07-17T02:26:29.389Z,19.53
2016-07-17T02:27:29.403Z,19.51
2016-07-17T02:28:29.422Z,19.47
2016-07-17T02:29:29.428Z,19.47
2016-07-17T02:30:29.436Z,19.47
2016-07-17T02:31:29.434Z,19.35
2016-07-17T02:32:29.402Z,19.51
2016-07-17T02:33:29.399Z,19.38
2016-07-17T02:34:29.406Z,19.38
2016-07-17T02:35:29.417Z,19.31
2016-07-17T02:36:29.377Z,19.31
2016-07-17T02:37:29.411Z,19.28
2016-07-17T02:38:29.391Z,19.25
2016-07-17T02:39:29.371Z,19.32
2016-07-17T02:40:29.402Z,19.25
2016-07-17T02:41:29.390Z,19.35
2016-07-17T02:42:29.390Z,19.25
2016-07-17T02:43:29.382Z,19.32
2016-07-17T02:44:29.466Z,19.43
2016-07-17T02:45:30.091Z,19.31
2016-07-17T02:46:29.405Z,19.2
2016-07-17T02:47:29.392Z,19.32
2016-07-17T02:48:29.431Z,19.36
2016-07-17T02:49:29.421Z,19.38
2016-07-17T02:50:29.402Z,19.29
2016-07-17T02:51:29.427Z,19.31
2016-07-17T02:52:29.414Z,19.32
2016-07-17T02:53:29.410Z,19.31
2016-07-17T02:54:29.405Z,19.28
2016-07-17T02:55:29.414Z,19.35
2016-07-17T02:56:29.431Z,19.32
2016-07-17T02:57:29.436Z,19.32
2016-07-17T02:58:29.406Z,19.39
2016-07-17T02:59:29.405Z,19.36
2016-07-17T03:00:29.428Z,19.36
2016-07-17T03:01:29.405Z,19.25
2016-07-17T03:02:29.436Z,19.31
2016-07-17T03:03:29.423Z,19.29
2016-07-17T03:04:29.461Z,19.33
2016-07-17T03:05:29.412Z,19.35
2016-07-17T03:06:29.435Z,19.42
2016-07-17T03:07:29.960Z,19.38
2016-07-17T03:08:29.434Z,19.35
2016-07-17T03:09:29.458Z,19.33
2016-07-17T03:10:29.437Z,19.43
2016-07-17T03:11:29.420Z,19.38
2016-07-17T03:12:29.481Z,19.33
2016-07-17T03:13:29.444Z,19.35
2016-07-17T03:14:29.456Z,19.42
2016-07-17T03:15:29.437Z,19.38
2016-07-17T03:16:29.464Z,19.43
2016-07-17T03:17:29.471Z,19.42
2016-07-17T03:18:29.430Z,19.38
2016-07-17T03:19:29.459Z,19.4
2016-07-17T03:20:29.454Z,19.33
2016-07-17T03:21:29.914Z,19.38
2016-07-17T03:22:29.469Z,19.42
2016-07-17T03:23:29.466Z,19.43
2016-07-17T03:24:29.439Z,19.39
2016-07-17T03:25:29.460Z,19.42
2016-07-17T03:26:29.438Z,19.4
2016-07-17T03:27:29.461Z,19.35
2016-07-17T03:28:29.447Z,19.4
2016-07-17T03:29:29.437Z,19.36
2016-07-17T03:30:29.469Z,19.43
2016-07-17T03:31:29.448Z,19.32
2016-07-17T03:32:29.437Z,19.4
2016-07-17T03:33:29.453Z,19.31
2016-07-17T03:34:29.467Z,19.35
2016-07-17T03:35:29.470Z,19.43
2016-07-17T03:36:29.477Z,19.39
2016-07-17T03:37:29.454Z,19.38
2016-07-17T03:38:29.433Z,19.35
2016-07-17T03:39:29.440Z,19.42
2016-07-17T03:40:29.466Z,19.4
2016-07-17T03:41:29.454Z,19.25
2016-07-17T03:42:29.472Z,19.42
2016-07-17T03:43:29.451Z,19.35
2016-07-17T03:44:29.474Z,19.38
2016-07-17T03:45:29.464Z,19.39
2016-07-17T03:46:29.472Z,19.36
2016-07-17T03:47:29.450Z,19.31
2016-07-17T03:48:29.453Z,19.32
2016-07-17T03:49:29.472Z,19.38
2016-07-17T03:50:29.469Z,19.39
2016-07-17T03:51:29.527Z,19.33
2016-07-17T03:52:29.467Z,19.42
2016-07-17T03:53:29.487Z,19.42
2016-07-17T03:54:29.454Z,19.39
2016-07-17T03:55:29.497Z,19.25
2016-07-17T03:56:29.473Z,19.36
2016-07-17T03:57:29.487Z,19.38
2016-07-17T03:58:29.510Z,19.47
2016-07-17T03:59:29.465Z,19.32
2016-07-17T04:00:29.452Z,19.35
2016-07-17T04:01:29.483Z,19.33
2016-07-17T04:02:29.473Z,19.35
2016-07-17T04:03:29.485Z,19.39
2016-07-17T04:04:29.463Z,19.38
2016-07-17T04:05:29.496Z,19.43
2016-07-17T04:06:29.473Z,19.38
2016-07-17T04:07:29.466Z,19.4
2016-07-17T04:08:29.478Z,19.46
2016-07-17T04:09:29.476Z,19.5
2016-07-17T04:10:29.464Z,19.51
2016-07-17T04:11:29.454Z,19.48
2016-07-17T04:12:29.498Z,19.4
2016-07-17T04:13:29.502Z,19.4
2016-07-17T04:14:29.498Z,19.38
2016-07-17T04:15:29.515Z,19.5
2016-07-17T04:16:29.506Z,19.4
2016-07-17T04:17:29.489Z,19.54
2016-07-17T04:18:29.524Z,19.43
2016-07-17T04:19:29.485Z,19.55
2016-07-17T04:20:29.517Z,19.43
2016-07-17T04:21:29.512Z,19.54
2016-07-17T04:22:29.514Z,19.55
2016-07-17T04:23:29.499Z,19.54
2016-07-17T04:24:29.559Z,19.57
2016-07-17T04:25:29.530Z,19.57
2016-07-17T04:26:29.536Z,19.58
2016-07-17T04:27:29.529Z,19.53
2016-07-17T04:28:29.528Z,19.6
2016-07-17T04:29:30.225Z,19.61
2016-07-17T04:30:29.498Z,19.6
2016-07-17T04:31:29.514Z,19.57
2016-07-17T04:32:29.519Z,19.63
2016-07-17T04:33:29.529Z,19.65
2016-07-17T04:34:29.515Z,19.65
2016-07-17T04:35:29.529Z,19.65
2016-07-17T04:36:29.576Z,19.66
2016-07-17T04:37:29.500Z,19.66
2016-07-17T04:38:29.520Z,19.63
2016-07-17T04:39:29.524Z,19.72
2016-07-17T04:40:29.533Z,19.83
2016-07-17T04:41:29.500Z,19.72
2016-07-17T04:42:29.500Z,19.79
2016-07-17T04:43:29.519Z,19.78
2016-07-17T04:44:29.511Z,19.75
2016-07-17T04:45:29.517Z,19.84
2016-07-17T04:46:29.504Z,19.87
2016-07-17T04:47:29.495Z,19.83
2016-07-17T04:48:29.497Z,19.84
2016-07-17T04:49:29.538Z,19.88
2016-07-17T04:50:29.516Z,19.91
2016-07-17T04:51:29.531Z,19.9
2016-07-17T04:52:29.533Z,19.9
2016-07-17T04:53:29.527Z,19.9
2016-07-17T04:54:29.553Z,20.03
2016-07-17T04:55:29.553Z,20
2016-07-17T04:56:29.561Z,20.08
2016-07-17T04:57:29.560Z,19.97
2016-07-17T04:58:29.548Z,20.1
2016-07-17T04:59:29.530Z,20.18
2016-07-17T05:00:29.539Z,20.15
2016-07-17T05:01:29.508Z,20.24
2016-07-17T05:02:29.525Z,20.25
2016-07-17T05:03:30.748Z,20.3
2016-07-17T05:04:29.520Z,20.33
2016-07-17T05:05:29.515Z,20.35
2016-07-17T05:06:29.522Z,20.35
2016-07-17T05:07:29.525Z,20.46
2016-07-17T05:08:29.518Z,20.54
2016-07-17T05:09:29.538Z,20.39
2016-07-17T05:10:29.553Z,20.46
2016-07-17T05:11:29.530Z,20.51
2016-07-17T05:12:29.551Z,20.62
2016-07-17T05:13:29.539Z,20.56
2016-07-17T05:14:29.554Z,20.64
2016-07-17T05:15:29.633Z,20.64
2016-07-17T05:16:29.560Z,20.56
2016-07-17T05:17:30.441Z,20.62
2016-07-17T05:18:30.518Z,20.56
2016-07-17T05:19:29.604Z,20.76
2016-07-17T05:20:29.583Z,20.69
2016-07-17T05:21:29.536Z,20.81
2016-07-17T05:22:29.550Z,20.84
2016-07-17T05:23:29.562Z,20.76
2016-07-17T05:24:29.595Z,20.83
2016-07-17T05:25:29.571Z,20.76
2016-07-17T05:26:29.559Z,20.77
2016-07-17T05:27:29.532Z,20.84
2016-07-17T05:28:29.565Z,20.89
2016-07-17T05:29:29.560Z,20.91
2016-07-17T05:30:29.560Z,20.89
2016-07-17T05:31:29.559Z,20.98
2016-07-17T05:32:29.566Z,21.04
2016-07-17T05:33:29.564Z,21.02
2016-07-17T05:34:29.571Z,21.06
2016-07-17T05:35:29.579Z,21.06
2016-07-17T05:36:29.579Z,21.05
2016-07-17T05:37:29.590Z,21.08
2016-07-17T05:38:29.591Z,20.96
2016-07-17T05:39:29.598Z,20.96
2016-07-17T05:40:29.572Z,21.13
2016-07-17T05:41:29.598Z,21.13
2016-07-17T05:42:29.572Z,21.17
2016-07-17T05:43:29.583Z,21.19
2016-07-17T05:44:29.562Z,21.21
2016-07-17T05:45:29.577Z,21.23
2016-07-17T05:46:29.580Z,21.17
2016-07-17T05:47:29.576Z,21.29
2016-07-17T05:48:29.565Z,21.45
2016-07-17T05:49:29.583Z,21.42
2016-07-17T05:50:29.591Z,21.54
2016-07-17T05:51:29.563Z,21.5
2016-07-17T05:52:29.563Z,21.54
2016-07-17T05:53:29.573Z,21.57
2016-07-17T05:54:29.588Z,21.5
2016-07-17T05:55:29.593Z,21.67
2016-07-17T05:56:29.594Z,21.67
2016-07-17T05:57:29.589Z,21.66
2016-07-17T05:58:29.618Z,21.69
2016-07-17T05:59:29.654Z,21.75
2016-07-17T06:00:29.564Z,21.81
2016-07-17T06:01:29.593Z,21.97
2016-07-17T06:02:29.586Z,22.07
2016-07-17T06:03:29.626Z,22.19
2016-07-17T06:04:29.608Z,22.25
2016-07-17T06:05:29.625Z,22.38
2016-07-17T06:06:29.620Z,22.54
2016-07-17T06:07:29.598Z,22.72
2016-07-17T06:08:29.610Z,22.69
2016-07-17T06:09:29.626Z,22.59
2016-07-17T06:10:29.596Z,22.6
2016-07-17T06:11:29.633Z,22.49
2016-07-17T06:12:29.609Z,22.59
2016-07-17T06:13:29.633Z,22.53
2016-07-17T06:14:29.624Z,22.56
2016-07-17T06:15:29.631Z,22.6
2016-07-17T06:16:29.605Z,22.57
2016-07-17T06:17:29.614Z,22.59
2016-07-17T06:18:29.647Z,22.68
2016-07-17T06:19:29.686Z,22.72
2016-07-17T06:20:29.627Z,22.68
2016-07-17T06:21:29.657Z,22.72
2016-07-17T06:22:29.678Z,22.75
2016-07-17T06:23:29.637Z,22.77
2016-07-17T06:24:29.668Z,22.78
2016-07-17T06:25:29.641Z,22.83
2016-07-17T06:26:29.661Z,22.86
2016-07-17T06:27:29.658Z,22.82
2016-07-17T06:28:29.699Z,22.92
2016-07-17T06:29:29.679Z,23.09
2016-07-17T06:30:29.619Z,23.12
2016-07-17T06:31:29.681Z,23.35
2016-07-17T06:32:29.719Z,23.47
2016-07-17T06:33:29.632Z,23.39
2016-07-17T06:34:29.680Z,23.35
2016-07-17T06:35:29.643Z,23.38
2016-07-17T06:36:29.655Z,23.43
2016-07-17T06:37:29.625Z,23.39
2016-07-17T06:38:29.662Z,23.38
2016-07-17T06:39:29.778Z,23.49
2016-07-17T06:40:29.885Z,23.52
2016-07-17T06:41:29.648Z,23.6
2016-07-17T06:42:29.658Z,23.75
2016-07-17T06:43:29.666Z,23.77
2016-07-17T06:44:29.655Z,23.7
2016-07-17T06:45:29.747Z,23.76
2016-07-17T06:46:29.697Z,23.49
2016-07-17T06:47:29.658Z,23.58
2016-07-17T06:48:29.654Z,23.52
2016-07-17T06:49:29.652Z,23.35
2016-07-17T06:50:29.658Z,23.29
2016-07-17T06:51:29.629Z,23.45
2016-07-17T06:52:29.658Z,23.34
2016-07-17T06:53:29.639Z,23.32
2016-07-17T06:54:29.658Z,23.32
2016-07-17T06:55:29.651Z,23.47
2016-07-17T06:56:29.639Z,23.53
2016-07-17T06:57:29.656Z,23.64
2016-07-17T06:58:29.657Z,23.6
2016-07-17T06:59:30.556Z,23.77
2016-07-17T07:00:29.631Z,23.71
2016-07-17T07:01:29.658Z,23.72
2016-07-17T07:02:29.655Z,23.79
2016-07-17T07:03:29.677Z,23.89
2016-07-17T07:04:29.688Z,24.01
2016-07-17T07:05:29.685Z,23.62
2016-07-17T07:06:29.675Z,23.8
2016-07-17T07:07:29.687Z,23.97
2016-07-17T07:08:29.671Z,23.85
2016-07-17T07:09:29.689Z,23.75
2016-07-17T07:10:29.631Z,23.97
2016-07-17T07:11:29.720Z,24.01
2016-07-17T07:12:29.690Z,24.07
2016-07-17T07:13:29.654Z,23.98
2016-07-17T07:14:29.659Z,24.12
2016-07-17T07:15:29.677Z,23.97
2016-07-17T07:16:29.684Z,24.07
2016-07-17T07:17:29.675Z,24.19
2016-07-17T07:18:29.679Z,24.16
2016-07-17T07:19:29.689Z,24.22
2016-07-17T07:20:29.691Z,24.52
2016-07-17T07:21:29.690Z,24.68
2016-07-17T07:22:29.679Z,24.39
2016-07-17T07:23:29.720Z,24.67
2016-07-17T07:24:29.670Z,24.52
2016-07-17T07:25:29.691Z,24.77
2016-07-17T07:26:29.694Z,24.71
2016-07-17T07:27:29.684Z,24.85
2016-07-17T07:28:29.691Z,24.69
2016-07-17T07:29:29.719Z,24.82
2016-07-17T07:30:29.678Z,24.75
2016-07-17T07:31:29.684Z,24.85
2016-07-17T07:32:29.687Z,24.94
2016-07-17T07:33:29.693Z,25.13
2016-07-17T07:34:29.672Z,25
2016-07-17T07:35:29.679Z,25.28
2016-07-17T07:36:29.679Z,25.19
2016-07-17T07:37:29.685Z,25.28
2016-07-17T07:38:29.690Z,25.42
2016-07-17T07:39:29.740Z,25.87
2016-07-17T07:40:29.696Z,25.84
2016-07-17T07:41:29.673Z,25.69
2016-07-17T07:42:29.720Z,25.68
2016-07-17T07:43:29.732Z,25.68
2016-07-17T07:44:29.719Z,25.69
2016-07-17T07:45:29.720Z,25.68
2016-07-17T07:46:29.717Z,25.5
2016-07-17T07:47:29.697Z,25.52
2016-07-17T07:48:29.723Z,25.44
2016-07-17T07:49:29.721Z,25.44
2016-07-17T07:50:29.737Z,25.46
2016-07-17T07:51:29.764Z,25.3
2016-07-17T07:52:29.742Z,25.56
2016-07-17T07:53:29.745Z,25.59
2016-07-17T07:54:29.721Z,25.56
2016-07-17T07:55:29.819Z,25.49
2016-07-17T07:56:29.729Z,25.46
2016-07-17T07:57:29.730Z,25.42
2016-07-17T07:58:29.752Z,25.42
2016-07-17T07:59:30.288Z,25.25
2016-07-17T08:00:29.717Z,25.28
2016-07-17T08:01:29.722Z,25.25
2016-07-17T08:02:29.724Z,25.32
2016-07-17T08:03:29.699Z,25.31
2016-07-17T08:04:29.733Z,25.28
2016-07-17T08:05:29.998Z,25.24
2016-07-17T08:06:29.742Z,25.25
2016-07-17T08:07:29.812Z,25.2
2016-07-17T08:08:29.782Z,25.25
2016-07-17T08:09:29.761Z,25.2
2016-07-17T08:10:29.749Z,25.24
2016-07-17T08:11:29.773Z,25.25
2016-07-17T08:12:29.841Z,25.25
2016-07-17T08:13:29.746Z,25.28
2016-07-17T08:14:29.808Z,25.38
2016-07-17T08:15:29.757Z,25.34
2016-07-17T08:16:29.755Z,25.37
2016-07-17T08:17:29.761Z,25.3
2016-07-17T08:18:29.732Z,25.16
2016-07-17T08:19:29.751Z,25.25
2016-07-17T08:20:29.755Z,25.06
2016-07-17T08:21:29.742Z,24.97
2016-07-17T08:22:29.753Z,24.77
2016-07-17T08:23:29.749Z,24.77
2016-07-17T08:24:29.763Z,24.69
2016-07-17T08:25:29.769Z,24.69
2016-07-17T08:26:29.736Z,24.57
2016-07-17T08:27:29.779Z,24.63
2016-07-17T08:28:29.786Z,24.26
2016-07-17T08:29:29.826Z,24.37
2016-07-17T08:30:29.737Z,24.41
2016-07-17T08:31:29.746Z,24.31
2016-07-17T08:32:29.739Z,24.45
2016-07-17T08:33:29.758Z,24.41
2016-07-17T08:34:29.757Z,24.61
2016-07-17T08:35:29.774Z,24.9
2016-07-17T08:36:29.751Z,24.97
2016-07-17T08:37:29.759Z,25.3
2016-07-17T08:38:29.754Z,25.39
2016-07-17T08:39:29.739Z,25.5
2016-07-17T08:40:29.822Z,25.53
2016-07-17T08:41:29.763Z,25.62
2016-07-17T08:42:29.761Z,25.77
2016-07-17T08:43:29.757Z,25.59
2016-07-17T08:44:29.756Z,25.65
2016-07-17T08:45:29.755Z,25.65
2016-07-17T08:46:29.785Z,25.69
2016-07-17T08:47:29.796Z,25.68
2016-07-17T08:48:29.786Z,25.8
2016-07-17T08:49:29.783Z,25.87
2016-07-17T08:50:29.801Z,25.97
2016-07-17T08:51:30.175Z,26.12
2016-07-17T08:52:29.774Z,26.18
2016-07-17T08:53:29.795Z,26.08
2016-07-17T08:54:29.770Z,26.25
2016-07-17T08:55:29.815Z,26.25
2016-07-17T08:56:29.785Z,26.18
2016-07-17T08:57:29.779Z,26.2
2016-07-17T08:58:29.761Z,26.05
2016-07-17T08:59:29.774Z,25.94
2016-07-17T09:00:30.426Z,25.84
2016-07-17T09:01:29.826Z,25.89
2016-07-17T09:02:30.629Z,25.87
2016-07-17T09:03:29.845Z,25.8
2016-07-17T09:04:29.788Z,25.74
2016-07-17T09:05:29.854Z,25.68
2016-07-17T09:06:29.816Z,25.71
2016-07-17T09:07:29.888Z,25.72
2016-07-17T09:08:29.875Z,25.74
2016-07-17T09:09:29.848Z,25.83
2016-07-17T09:10:29.783Z,25.79
2016-07-17T09:11:29.787Z,25.69
2016-07-17T09:12:29.846Z,25.64
2016-07-17T09:13:29.847Z,25.75
2016-07-17T09:14:29.839Z,25.62
2016-07-17T09:15:29.847Z,25.43
2016-07-17T09:16:29.887Z,25.47
2016-07-17T09:17:29.898Z,25.46
2016-07-17T09:18:29.820Z,25.43
2016-07-17T09:19:29.817Z,25.31
2016-07-17T09:20:29.797Z,25.27
2016-07-17T09:21:30.623Z,25.09
2016-07-17T09:22:29.824Z,25.35
2016-07-17T09:23:29.844Z,25.54
2016-07-17T09:24:29.895Z,25.56
2016-07-17T09:25:29.830Z,25.67
2016-07-17T09:26:29.815Z,25.64
2016-07-17T09:27:29.877Z,25.56
2016-07-17T09:28:29.855Z,25.52
2016-07-17T09:29:29.794Z,25.57
2016-07-17T09:30:29.835Z,25.67
2016-07-17T09:31:29.845Z,25.86
2016-07-17T09:32:29.868Z,25.8
2016-07-17T09:33:29.853Z,25.87
2016-07-17T09:34:31.297Z,26.01
2016-07-17T09:35:29.907Z,26.12
2016-07-17T09:36:29.872Z,26.25
2016-07-17T09:37:29.854Z,26.4
2016-07-17T09:38:29.910Z,26.28
2016-07-17T09:39:29.902Z,26.27
2016-07-17T09:40:30.907Z,26.2
2016-07-17T09:41:29.885Z,26.18
2016-07-17T09:42:29.838Z,26.27
2016-07-17T09:43:29.918Z,26.27
2016-07-17T09:44:29.822Z,26.42
2016-07-17T09:45:29.950Z,26.24
2016-07-17T09:46:29.883Z,26.08
2016-07-17T09:47:29.908Z,26.17
2016-07-17T09:48:29.837Z,26.29
2016-07-17T09:49:29.877Z,26.43
2016-07-17T09:50:29.824Z,26.73
2016-07-17T09:51:29.917Z,26.81
2016-07-17T09:52:29.951Z,27.01
2016-07-17T09:53:30.015Z,27.1
2016-07-17T09:54:29.883Z,27.23
2016-07-17T09:55:29.952Z,27.26
2016-07-17T09:56:29.905Z,27.41
2016-07-17T09:57:29.883Z,27.42
2016-07-17T09:58:29.876Z,27.41
2016-07-17T09:59:29.909Z,27.28
2016-07-17T10:00:29.939Z,27.21
2016-07-17T10:01:29.960Z,27.36
2016-07-17T10:02:30.132Z,27.17
2016-07-17T10:03:29.965Z,27.23
2016-07-17T10:04:29.907Z,27.24
2016-07-17T10:05:29.922Z,27.16
2016-07-17T10:06:30.782Z,27.13
2016-07-17T10:07:29.884Z,27.1
2016-07-17T10:08:29.909Z,27.01
2016-07-17T10:09:29.908Z,26.99
2016-07-17T10:10:30.003Z,27.06
2016-07-17T10:11:30.530Z,26.83
2016-07-17T10:12:30.006Z,26.79
2016-07-17T10:13:30.097Z,26.77
2016-07-17T10:14:30.079Z,26.81
2016-07-17T10:15:30.197Z,26.86
2016-07-17T10:16:29.954Z,26.94
2016-07-17T10:17:29.937Z,26.92
2016-07-17T10:18:30.094Z,26.96
2016-07-17T10:19:30.358Z,27.01
2016-07-17T10:20:29.887Z,27.06
2016-07-17T10:21:29.883Z,26.98
2016-07-17T10:22:29.889Z,27.21
2016-07-17T10:23:30.011Z,27.32
2016-07-17T10:24:29.911Z,27.31
2016-07-17T10:25:29.875Z,27.31
2016-07-17T10:26:29.945Z,27.31
2016-07-17T10:27:29.860Z,27.19
2016-07-17T10:28:29.927Z,27.06
2016-07-17T10:29:29.941Z,27.2
2016-07-17T10:30:30.129Z,27.33
2016-07-17T10:31:30.140Z,27.42
2016-07-17T10:32:29.920Z,27.31
2016-07-17T10:33:30.005Z,27.59
2016-07-17T10:34:29.943Z,27.5
2016-07-17T10:35:29.889Z,27.38
2016-07-17T10:36:30.115Z,27.33
2016-07-17T10:37:29.918Z,27.09
2016-07-17T10:38:30.538Z,26.94
2016-07-17T10:39:29.901Z,27.01
2016-07-17T10:40:30.104Z,26.98
2016-07-17T10:41:29.906Z,26.96
2016-07-17T10:42:29.943Z,26.92
2016-07-17T10:43:29.923Z,26.99
2016-07-17T10:44:29.931Z,27.29
2016-07-17T10:45:29.974Z,27.19
2016-07-17T10:46:30.054Z,27.32
2016-07-17T10:47:29.943Z,27.32
2016-07-17T10:48:30.082Z,27.17
2016-07-17T10:49:29.954Z,27.14
2016-07-17T10:50:30.242Z,27.06
2016-07-17T10:51:30.060Z,27.2
2016-07-17T10:52:29.932Z,27.23
2016-07-17T10:53:29.988Z,27.05
2016-07-17T10:54:30.872Z,27.13
2016-07-17T10:55:30.027Z,27.19
2016-07-17T10:56:29.995Z,27.26
2016-07-17T10:57:29.907Z,27.29
2016-07-17T10:58:30.618Z,27.39
2016-07-17T10:59:29.938Z,27.47
2016-07-17T11:00:29.944Z,27.36
2016-07-17T11:01:30.181Z,27.47
2016-07-17T11:02:29.986Z,27.31
2016-07-17T11:03:30.066Z,27.35
2016-07-17T11:04:29.926Z,27.42
2016-07-17T11:05:30.326Z,27.42
2016-07-17T11:06:29.952Z,27.42
2016-07-17T11:07:30.149Z,27.39
2016-07-17T11:08:29.952Z,27.46
2016-07-17T11:09:30.045Z,27.42
2016-07-17T11:10:30.007Z,27.46
2016-07-17T11:11:30.030Z,27.32
2016-07-17T11:12:30.054Z,27.28
2016-07-17T11:13:29.989Z,27.32
2016-07-17T11:14:30.307Z,27.23
2016-07-17T11:15:29.985Z,27.24
2016-07-17T11:16:30.039Z,27.14
2016-07-17T11:17:29.949Z,27.19
2016-07-17T11:18:29.971Z,27.19
2016-07-17T11:19:29.935Z,27.32
2016-07-17T11:20:29.969Z,27.36
2016-07-17T11:21:30.216Z,27.5
2016-07-17T11:22:30.973Z,27.51
2016-07-17T11:23:30.063Z,27.54
2016-07-17T11:24:30.309Z,27.61
2016-07-17T11:25:30.287Z,27.53
2016-07-17T11:26:29.944Z,27.61
2016-07-17T11:27:29.960Z,27.57
2016-07-17T11:28:29.972Z,27.67
2016-07-17T11:29:30.410Z,27.69
2016-07-17T11:30:29.952Z,27.73
2016-07-17T11:31:29.970Z,27.79
2016-07-17T11:32:29.979Z,27.66
2016-07-17T11:33:29.944Z,27.54
2016-07-17T11:34:29.944Z,27.53
2016-07-17T11:35:29.973Z,27.76
2016-07-17T11:36:30.201Z,27.86
2016-07-17T11:37:29.971Z,27.85
2016-07-17T11:38:30.215Z,27.77
2016-07-17T11:39:30.014Z,27.58
2016-07-17T11:40:30.073Z,27.59
2016-07-17T11:41:30.270Z,27.76
2016-07-17T11:42:30.022Z,27.64
2016-07-17T11:43:29.975Z,27.77
2016-07-17T11:44:30.022Z,27.82
2016-07-17T11:45:30.012Z,27.76
2016-07-17T11:46:29.977Z,27.66
2016-07-17T11:47:29.998Z,27.47
2016-07-17T11:48:29.969Z,27.43
2016-07-17T11:49:30.051Z,27.48
2016-07-17T11:50:30.096Z,27.5
2016-07-17T11:51:30.245Z,27.48
2016-07-17T11:52:30.035Z,27.32
2016-07-17T11:53:30.128Z,27.32
2016-07-17T11:54:30.049Z,27.47
2016-07-17T11:55:30.343Z,27.5
2016-07-17T11:56:30.021Z,27.66
2016-07-17T11:57:30.055Z,27.82
2016-07-17T11:58:30.041Z,27.96
2016-07-17T11:59:30.860Z,27.86
2016-07-17T12:00:30.099Z,27.88
2016-07-17T12:01:30.037Z,28.03
2016-07-17T12:02:30.023Z,28.11
2016-07-17T12:03:30.596Z,28.03
2016-07-17T12:04:30.074Z,27.96
2016-07-17T12:05:30.066Z,27.8
2016-07-17T12:06:30.031Z,27.85
2016-07-17T12:07:29.985Z,27.98
2016-07-17T12:08:30.045Z,28.04
2016-07-17T12:09:30.076Z,28.07
2016-07-17T12:10:29.996Z,28.09
2016-07-17T12:11:30.007Z,28.14
2016-07-17T12:12:29.990Z,28.25
2016-07-17T12:13:30.001Z,28.22
2016-07-17T12:14:29.980Z,28.16
2016-07-17T12:15:30.009Z,28.29
2016-07-17T12:16:29.969Z,28.22
2016-07-17T12:17:29.982Z,27.99
2016-07-17T12:18:30.374Z,27.77
2016-07-17T12:19:30.018Z,27.8
2016-07-17T12:20:30.242Z,27.74
2016-07-17T12:21:30.041Z,27.7
2016-07-17T12:22:30.165Z,27.76
2016-07-17T12:23:29.991Z,27.66
2016-07-17T12:24:30.044Z,27.69
2016-07-17T12:25:30.076Z,27.74
2016-07-17T12:26:30.057Z,27.84
2016-07-17T12:27:30.285Z,27.76
2016-07-17T12:28:29.995Z,27.8
2016-07-17T12:29:31.014Z,27.73
2016-07-17T12:30:30.016Z,27.61
2016-07-17T12:31:30.018Z,27.43
2016-07-17T12:32:30.057Z,27.61
2016-07-17T12:33:30.132Z,27.43
2016-07-17T12:34:30.021Z,27.26
2016-07-17T12:35:30.032Z,27.26
2016-07-17T12:36:30.368Z,27.23
2016-07-17T12:37:30.092Z,27.16
2016-07-17T12:38:30.114Z,27.13
2016-07-17T12:39:30.020Z,27.24
2016-07-17T12:40:30.011Z,27.2
2016-07-17T12:41:30.035Z,27.26
2016-07-17T12:42:30.040Z,27.32
2016-07-17T12:43:30.075Z,27.16
2016-07-17T12:44:30.041Z,27.21
2016-07-17T12:45:30.039Z,27.29
2016-07-17T12:46:30.085Z,27.23
2016-07-17T12:47:30.067Z,27.35
2016-07-17T12:48:30.545Z,27.29
2016-07-17T12:49:30.109Z,27.31
2016-07-17T12:50:30.040Z,27.39
2016-07-17T12:51:30.072Z,27.51
2016-07-17T12:52:30.067Z,27.66
2016-07-17T12:53:30.032Z,27.79
2016-07-17T12:54:30.038Z,27.77
2016-07-17T12:55:30.034Z,27.92